sensor_id;sensor_type;location;lat;lon;timestamp;P1;durP1;ratioP1;P2;durP2;ratioP2
76053;SDS011;64752;48.870;9.082;2022-12-08T00:01:30;26.10;;;15.93;;
76053;SDS011;64752;48.870;9.082;2022-12-08T00:03:58;34.58;;;20.38;;
76053;SDS011;64752;48.870;9.082;2022-12-08T00:11:46;25.90;;;14.90;;
76053;SDS011;64752;48.870;9.082;2022-12-08T00:14:12;27.27;;;16.38;;
76053;SDS011;64752;48.870;9.082;2022-12-08T00:16:37;29.23;;;14.43;;
76053;SDS011;64752;48.870;9.082;2022-12-08T00:19:03;22.73;;;13.77;;
76053;SDS011;64752;48.870;9.082;2022-12-08T00:21:28;24.13;;;13.93;;
76053;SDS011;64752;48.870;9.082;2022-12-08T00:23:54;28.23;;;15.07;;
76053;SDS011;64752;48.870;9.082;2022-12-08T00:26:20;25.75;;;15.93;;
76053;SDS011;64752;48.870;9.082;2022-12-08T00:28:46;29.10;;;15.20;;
76053;SDS011;64752;48.870;9.082;2022-12-08T00:31:11;23.30;;;13.83;;
76053;SDS011;64752;48.870;9.082;2022-12-08T00:33:37;29.27;;;16.35;;
76053;SDS011;64752;48.870;9.082;2022-12-08T00:36:06;29.50;;;17.40;;
76053;SDS011;64752;48.870;9.082;2022-12-08T00:38:33;21.90;;;13.88;;
76053;SDS011;64752;48.870;9.082;2022-12-08T00:41:00;25.52;;;14.75;;
76053;SDS011;64752;48.870;9.082;2022-12-08T00:43:25;23.83;;;12.52;;
76053;SDS011;64752;48.870;9.082;2022-12-08T00:45:51;21.07;;;11.60;;
76053;SDS011;64752;48.870;9.082;2022-12-08T00:48:16;22.60;;;13.87;;
76053;SDS011;64752;48.870;9.082;2022-12-08T00:50:42;23.83;;;13.90;;
76053;SDS011;64752;48.870;9.082;2022-12-08T00:53:07;26.60;;;14.33;;
76053;SDS011;64752;48.870;9.082;2022-12-08T00:55:32;26.20;;;13.00;;
76053;SDS011;64752;48.870;9.082;2022-12-08T00:57:58;26.13;;;14.60;;
76053;SDS011;64752;48.870;9.082;2022-12-08T01:00:23;23.57;;;14.57;;
76053;SDS011;64752;48.870;9.082;2022-12-08T01:02:50;24.38;;;14.10;;
76053;SDS011;64752;48.870;9.082;2022-12-08T01:05:18;33.92;;;15.75;;
76053;SDS011;64752;48.870;9.082;2022-12-08T01:07:43;39.73;;;18.47;;
76053;SDS011;64752;48.870;9.082;2022-12-08T01:10:11;30.87;;;16.93;;
76053;SDS011;64752;48.870;9.082;2022-12-08T01:12:40;33.72;;;17.10;;
76053;SDS011;64752;48.870;9.082;2022-12-08T01:15:08;25.73;;;14.10;;
76053;SDS011;64752;48.870;9.082;2022-12-08T01:17:35;26.37;;;15.10;;
76053;SDS011;64752;48.870;9.082;2022-12-08T01:20:02;42.17;;;18.75;;
76053;SDS011;64752;48.870;9.082;2022-12-08T01:22:28;36.65;;;19.42;;
76053;SDS011;64752;48.870;9.082;2022-12-08T01:24:53;29.90;;;17.43;;
76053;SDS011;64752;48.870;9.082;2022-12-08T01:27:18;32.88;;;17.50;;
76053;SDS011;64752;48.870;9.082;2022-12-08T01:29:44;33.47;;;17.55;;
76053;SDS011;64752;48.870;9.082;2022-12-08T01:32:09;27.03;;;15.13;;
76053;SDS011;64752;48.870;9.082;2022-12-08T01:34:34;28.42;;;15.30;;
76053;SDS011;64752;48.870;9.082;2022-12-08T01:37:00;25.40;;;15.73;;
76053;SDS011;64752;48.870;9.082;2022-12-08T01:39:25;24.03;;;14.53;;
76053;SDS011;64752;48.870;9.082;2022-12-08T01:41:50;22.97;;;14.27;;
76053;SDS011;64752;48.870;9.082;2022-12-08T01:46:42;25.17;;;14.53;;
76053;SDS011;64752;48.870;9.082;2022-12-08T01:49:12;32.28;;;16.40;;
76053;SDS011;64752;48.870;9.082;2022-12-08T01:51:47;33.40;;;16.70;;
76053;SDS011;64752;48.870;9.082;2022-12-08T01:54:25;29.65;;;16.05;;
76053;SDS011;64752;48.870;9.082;2022-12-08T01:59:24;30.33;;;15.90;;
76053;SDS011;64752;48.870;9.082;2022-12-08T02:01:52;48.33;;;22.10;;
76053;SDS011;64752;48.870;9.082;2022-12-08T02:04:18;38.70;;;18.30;;
76053;SDS011;64752;48.870;9.082;2022-12-08T02:06:43;28.57;;;16.77;;
76053;SDS011;64752;48.870;9.082;2022-12-08T02:09:10;28.90;;;16.70;;
76053;SDS011;64752;48.870;9.082;2022-12-08T02:11:36;33.50;;;18.03;;
76053;SDS011;64752;48.870;9.082;2022-12-08T02:14:06;33.17;;;17.15;;
76053;SDS011;64752;48.870;9.082;2022-12-08T02:30:13;28.33;;;14.98;;
76053;SDS011;64752;48.870;9.082;2022-12-08T02:43:38;24.25;;;15.43;;
76053;SDS011;64752;48.870;9.082;2022-12-08T02:46:19;26.48;;;14.68;;
76053;SDS011;64752;48.870;9.082;2022-12-08T02:48:48;21.65;;;12.77;;
76053;SDS011;64752;48.870;9.082;2022-12-08T02:53:40;24.13;;;13.32;;
76053;SDS011;64752;48.870;9.082;2022-12-08T03:09:50;40.17;;;18.27;;
76053;SDS011;64752;48.870;9.082;2022-12-08T03:12:24;36.40;;;19.00;;
76053;SDS011;64752;48.870;9.082;2022-12-08T03:14:52;37.90;;;18.75;;
76053;SDS011;64752;48.870;9.082;2022-12-08T03:17:21;39.88;;;18.75;;
76053;SDS011;64752;48.870;9.082;2022-12-08T03:19:50;37.22;;;18.38;;
76053;SDS011;64752;48.870;9.082;2022-12-08T03:22:19;33.42;;;17.17;;
76053;SDS011;64752;48.870;9.082;2022-12-08T03:24:48;37.83;;;18.13;;
76053;SDS011;64752;48.870;9.082;2022-12-08T03:27:16;33.05;;;17.40;;
76053;SDS011;64752;48.870;9.082;2022-12-08T03:29:48;34.63;;;17.80;;
76053;SDS011;64752;48.870;9.082;2022-12-08T03:34:48;33.42;;;17.10;;
76053;SDS011;64752;48.870;9.082;2022-12-08T03:37:15;41.65;;;19.75;;
76053;SDS011;64752;48.870;9.082;2022-12-08T03:39:41;33.43;;;17.77;;
76053;SDS011;64752;48.870;9.082;2022-12-08T03:42:07;38.57;;;17.77;;
76053;SDS011;64752;48.870;9.082;2022-12-08T03:44:33;38.20;;;19.33;;
76053;SDS011;64752;48.870;9.082;2022-12-08T03:46:58;28.67;;;15.70;;
76053;SDS011;64752;48.870;9.082;2022-12-08T03:49:24;27.07;;;14.60;;
76053;SDS011;64752;48.870;9.082;2022-12-08T03:51:49;30.70;;;16.87;;
76053;SDS011;64752;48.870;9.082;2022-12-08T03:54:14;28.90;;;15.63;;
76053;SDS011;64752;48.870;9.082;2022-12-08T03:56:40;27.00;;;14.47;;
76053;SDS011;64752;48.870;9.082;2022-12-08T03:59:05;30.97;;;15.73;;
76053;SDS011;64752;48.870;9.082;2022-12-08T04:01:31;27.65;;;14.93;;
76053;SDS011;64752;48.870;9.082;2022-12-08T04:03:57;26.30;;;15.13;;
76053;SDS011;64752;48.870;9.082;2022-12-08T04:06:23;26.33;;;14.07;;
76053;SDS011;64752;48.870;9.082;2022-12-08T04:08:49;31.07;;;15.63;;
76053;SDS011;64752;48.870;9.082;2022-12-08T04:11:15;30.95;;;15.77;;
76053;SDS011;64752;48.870;9.082;2022-12-08T04:13:41;45.38;;;20.88;;
76053;SDS011;64752;48.870;9.082;2022-12-08T04:16:07;33.13;;;17.30;;
76053;SDS011;64752;48.870;9.082;2022-12-08T04:18:33;41.30;;;19.43;;
76053;SDS011;64752;48.870;9.082;2022-12-08T04:20:59;40.35;;;19.17;;
76053;SDS011;64752;48.870;9.082;2022-12-08T04:23:25;45.13;;;20.00;;
76053;SDS011;64752;48.870;9.082;2022-12-08T04:25:51;31.70;;;16.83;;
76053;SDS011;64752;48.870;9.082;2022-12-08T04:28:17;37.47;;;17.25;;
76053;SDS011;64752;48.870;9.082;2022-12-08T04:30:42;39.13;;;18.83;;
76053;SDS011;64752;48.870;9.082;2022-12-08T04:33:08;29.43;;;16.63;;
76053;SDS011;64752;48.870;9.082;2022-12-08T04:35:33;30.57;;;16.57;;
76053;SDS011;64752;48.870;9.082;2022-12-08T04:37:58;29.37;;;15.67;;
76053;SDS011;64752;48.870;9.082;2022-12-08T04:40:24;31.57;;;17.03;;
76053;SDS011;64752;48.870;9.082;2022-12-08T04:42:49;37.50;;;18.03;;
76053;SDS011;64752;48.870;9.082;2022-12-08T04:45:15;32.20;;;17.07;;
76053;SDS011;64752;48.870;9.082;2022-12-08T04:47:40;26.03;;;13.80;;
76053;SDS011;64752;48.870;9.082;2022-12-08T04:50:06;26.23;;;13.90;;
76053;SDS011;64752;48.870;9.082;2022-12-08T04:52:32;27.88;;;15.13;;
76053;SDS011;64752;48.870;9.082;2022-12-08T04:54:57;39.60;;;18.47;;
76053;SDS011;64752;48.870;9.082;2022-12-08T04:57:23;46.93;;;20.57;;
76053;SDS011;64752;48.870;9.082;2022-12-08T04:59:48;36.37;;;18.83;;
76053;SDS011;64752;48.870;9.082;2022-12-08T05:02:13;51.63;;;22.37;;
76053;SDS011;64752;48.870;9.082;2022-12-08T05:04:39;39.40;;;19.87;;
76053;SDS011;64752;48.870;9.082;2022-12-08T05:07:04;31.50;;;16.63;;
76053;SDS011;64752;48.870;9.082;2022-12-08T05:09:30;33.07;;;15.40;;
76053;SDS011;64752;48.870;9.082;2022-12-08T05:11:55;24.93;;;15.37;;
76053;SDS011;64752;48.870;9.082;2022-12-08T05:14:20;32.20;;;15.37;;
76053;SDS011;64752;48.870;9.082;2022-12-08T05:16:46;28.27;;;15.23;;
76053;SDS011;64752;48.870;9.082;2022-12-08T05:19:11;28.40;;;15.63;;
76053;SDS011;64752;48.870;9.082;2022-12-08T05:21:38;31.65;;;15.57;;
76053;SDS011;64752;48.870;9.082;2022-12-08T05:24:03;32.53;;;17.50;;
76053;SDS011;64752;48.870;9.082;2022-12-08T05:26:32;34.25;;;18.77;;
76053;SDS011;64752;48.870;9.082;2022-12-08T05:28:57;28.57;;;16.00;;
76053;SDS011;64752;48.870;9.082;2022-12-08T05:31:23;41.87;;;18.87;;
76053;SDS011;64752;48.870;9.082;2022-12-08T05:33:49;36.23;;;18.13;;
76053;SDS011;64752;48.870;9.082;2022-12-08T05:38:41;23.88;;;13.45;;
76053;SDS011;64752;48.870;9.082;2022-12-08T05:41:07;24.17;;;13.47;;
76053;SDS011;64752;48.870;9.082;2022-12-08T05:43:33;24.15;;;13.73;;
76053;SDS011;64752;48.870;9.082;2022-12-08T05:45:58;34.53;;;15.90;;
76053;SDS011;64752;48.870;9.082;2022-12-08T05:48:24;28.63;;;14.77;;
76053;SDS011;64752;48.870;9.082;2022-12-08T05:50:50;32.10;;;16.30;;
76053;SDS011;64752;48.870;9.082;2022-12-08T05:53:16;32.07;;;15.63;;
76053;SDS011;64752;48.870;9.082;2022-12-08T05:55:42;29.95;;;15.68;;
76053;SDS011;64752;48.870;9.082;2022-12-08T05:58:10;22.07;;;12.43;;
76053;SDS011;64752;48.870;9.082;2022-12-08T06:00:37;23.70;;;13.32;;
76053;SDS011;64752;48.870;9.082;2022-12-08T06:03:03;22.80;;;12.37;;
76053;SDS011;64752;48.870;9.082;2022-12-08T06:05:28;27.43;;;13.47;;
76053;SDS011;64752;48.870;9.082;2022-12-08T06:07:56;27.08;;;12.68;;
76053;SDS011;64752;48.870;9.082;2022-12-08T06:10:22;24.80;;;13.30;;
76053;SDS011;64752;48.870;9.082;2022-12-08T06:12:47;22.83;;;12.43;;
76053;SDS011;64752;48.870;9.082;2022-12-08T06:15:12;27.47;;;12.87;;
76053;SDS011;64752;48.870;9.082;2022-12-08T06:17:38;40.97;;;15.43;;
76053;SDS011;64752;48.870;9.082;2022-12-08T06:20:03;54.27;;;21.63;;
76053;SDS011;64752;48.870;9.082;2022-12-08T06:22:29;38.70;;;17.48;;
76053;SDS011;64752;48.870;9.082;2022-12-08T06:24:54;30.10;;;15.50;;
76053;SDS011;64752;48.870;9.082;2022-12-08T06:27:20;22.60;;;12.40;;
76053;SDS011;64752;48.870;9.082;2022-12-08T06:29:45;22.33;;;13.30;;
76053;SDS011;64752;48.870;9.082;2022-12-08T06:32:11;31.57;;;14.90;;
76053;SDS011;64752;48.870;9.082;2022-12-08T06:34:36;40.17;;;16.43;;
76053;SDS011;64752;48.870;9.082;2022-12-08T06:37:01;62.70;;;20.73;;
76053;SDS011;64752;48.870;9.082;2022-12-08T06:39:27;34.50;;;16.07;;
76053;SDS011;64752;48.870;9.082;2022-12-08T06:41:52;30.33;;;15.63;;
76053;SDS011;64752;48.870;9.082;2022-12-08T06:44:36;45.65;;;17.88;;
76053;SDS011;64752;48.870;9.082;2022-12-08T06:47:04;34.80;;;15.32;;
76053;SDS011;64752;48.870;9.082;2022-12-08T06:49:32;34.60;;;16.38;;
76053;SDS011;64752;48.870;9.082;2022-12-08T06:51:58;26.93;;;13.37;;
76053;SDS011;64752;48.870;9.082;2022-12-08T06:54:23;24.67;;;12.53;;
76053;SDS011;64752;48.870;9.082;2022-12-08T06:56:48;19.40;;;11.60;;
76053;SDS011;64752;48.870;9.082;2022-12-08T06:59:14;21.93;;;12.90;;
76053;SDS011;64752;48.870;9.082;2022-12-08T07:01:39;27.17;;;13.27;;
76053;SDS011;64752;48.870;9.082;2022-12-08T07:04:04;18.37;;;11.20;;
76053;SDS011;64752;48.870;9.082;2022-12-08T07:06:30;26.87;;;11.57;;
76053;SDS011;64752;48.870;9.082;2022-12-08T07:08:55;26.87;;;13.23;;
76053;SDS011;64752;48.870;9.082;2022-12-08T07:11:20;28.63;;;13.57;;
76053;SDS011;64752;48.870;9.082;2022-12-08T07:13:46;21.87;;;12.20;;
76053;SDS011;64752;48.870;9.082;2022-12-08T07:16:11;19.90;;;11.57;;
76053;SDS011;64752;48.870;9.082;2022-12-08T07:18:37;22.67;;;11.63;;
76053;SDS011;64752;48.870;9.082;2022-12-08T07:21:04;29.08;;;14.05;;
76053;SDS011;64752;48.870;9.082;2022-12-08T07:23:30;17.52;;;10.00;;
76053;SDS011;64752;48.870;9.082;2022-12-08T07:25:58;19.03;;;10.70;;
76053;SDS011;64752;48.870;9.082;2022-12-08T07:28:25;22.23;;;10.82;;
76053;SDS011;64752;48.870;9.082;2022-12-08T07:30:50;18.97;;;11.87;;
76053;SDS011;64752;48.870;9.082;2022-12-08T07:33:15;21.00;;;10.20;;
76053;SDS011;64752;48.870;9.082;2022-12-08T07:35:41;23.80;;;12.03;;
76053;SDS011;64752;48.870;9.082;2022-12-08T07:38:08;21.08;;;12.43;;
76053;SDS011;64752;48.870;9.082;2022-12-08T07:40:37;19.45;;;10.82;;
76053;SDS011;64752;48.870;9.082;2022-12-08T07:43:03;24.92;;;10.88;;
76053;SDS011;64752;48.870;9.082;2022-12-08T07:45:28;19.47;;;11.83;;
76053;SDS011;64752;48.870;9.082;2022-12-08T07:47:54;18.53;;;10.20;;
76053;SDS011;64752;48.870;9.082;2022-12-08T07:50:19;21.77;;;9.93;;
76053;SDS011;64752;48.870;9.082;2022-12-08T07:52:44;19.02;;;10.90;;
76053;SDS011;64752;48.870;9.082;2022-12-08T07:55:10;24.65;;;14.18;;
76053;SDS011;64752;48.870;9.082;2022-12-08T07:57:35;19.93;;;11.20;;
76053;SDS011;64752;48.870;9.082;2022-12-08T08:00:01;21.90;;;11.03;;
76053;SDS011;64752;48.870;9.082;2022-12-08T08:02:30;18.80;;;10.75;;
76053;SDS011;64752;48.870;9.082;2022-12-08T08:04:55;20.10;;;10.40;;
76053;SDS011;64752;48.870;9.082;2022-12-08T08:07:20;17.73;;;11.03;;
76053;SDS011;64752;48.870;9.082;2022-12-08T08:09:45;20.10;;;11.13;;
76053;SDS011;64752;48.870;9.082;2022-12-08T08:12:11;17.50;;;10.30;;
76053;SDS011;64752;48.870;9.082;2022-12-08T08:14:36;17.17;;;10.27;;
76053;SDS011;64752;48.870;9.082;2022-12-08T08:17:02;19.77;;;12.33;;
76053;SDS011;64752;48.870;9.082;2022-12-08T08:19:27;18.00;;;10.05;;
76053;SDS011;64752;48.870;9.082;2022-12-08T08:21:52;16.93;;;10.67;;
76053;SDS011;64752;48.870;9.082;2022-12-08T08:24:18;18.65;;;11.88;;
76053;SDS011;64752;48.870;9.082;2022-12-08T08:26:45;16.75;;;9.50;;
76053;SDS011;64752;48.870;9.082;2022-12-08T08:29:10;17.67;;;10.97;;
76053;SDS011;64752;48.870;9.082;2022-12-08T08:31:36;17.93;;;10.53;;
76053;SDS011;64752;48.870;9.082;2022-12-08T08:34:01;19.53;;;11.80;;
76053;SDS011;64752;48.870;9.082;2022-12-08T08:36:30;21.08;;;11.80;;
76053;SDS011;64752;48.870;9.082;2022-12-08T08:38:55;23.47;;;13.07;;
76053;SDS011;64752;48.870;9.082;2022-12-08T08:41:21;25.80;;;12.20;;
76053;SDS011;64752;48.870;9.082;2022-12-08T08:43:46;21.63;;;13.50;;
76053;SDS011;64752;48.870;9.082;2022-12-08T08:46:15;21.03;;;13.00;;
76053;SDS011;64752;48.870;9.082;2022-12-08T08:48:40;21.85;;;11.90;;
76053;SDS011;64752;48.870;9.082;2022-12-08T08:51:09;25.17;;;13.10;;
76053;SDS011;64752;48.870;9.082;2022-12-08T08:53:36;16.73;;;11.32;;
76053;SDS011;64752;48.870;9.082;2022-12-08T08:56:01;24.10;;;12.47;;
76053;SDS011;64752;48.870;9.082;2022-12-08T08:58:29;16.75;;;10.00;;
76053;SDS011;64752;48.870;9.082;2022-12-08T09:00:54;14.90;;;8.97;;
76053;SDS011;64752;48.870;9.082;2022-12-08T09:03:20;19.95;;;9.05;;
76053;SDS011;64752;48.870;9.082;2022-12-08T09:05:49;15.25;;;8.35;;
76053;SDS011;64752;48.870;9.082;2022-12-08T09:08:14;18.17;;;7.93;;
76053;SDS011;64752;48.870;9.082;2022-12-08T09:10:40;13.48;;;7.43;;
76053;SDS011;64752;48.870;9.082;2022-12-08T09:13:07;11.20;;;7.38;;
76053;SDS011;64752;48.870;9.082;2022-12-08T09:25:53;10.68;;;5.85;;
76053;SDS011;64752;48.870;9.082;2022-12-08T09:28:18;12.88;;;5.97;;
76053;SDS011;64752;48.870;9.082;2022-12-08T09:30:43;11.10;;;6.00;;
76053;SDS011;64752;48.870;9.082;2022-12-08T09:33:09;12.97;;;5.80;;
76053;SDS011;64752;48.870;9.082;2022-12-08T09:35:34;10.43;;;6.03;;
76053;SDS011;64752;48.870;9.082;2022-12-08T09:37:59;8.47;;;5.97;;
76053;SDS011;64752;48.870;9.082;2022-12-08T09:40:25;12.80;;;5.50;;
76053;SDS011;64752;48.870;9.082;2022-12-08T09:42:53;8.50;;;5.30;;
76053;SDS011;64752;48.870;9.082;2022-12-08T09:45:27;10.23;;;4.68;;
76053;SDS011;64752;48.870;9.082;2022-12-08T09:53:10;8.02;;;4.90;;
76053;SDS011;64752;48.870;9.082;2022-12-08T09:58:34;8.57;;;5.25;;
76053;SDS011;64752;48.870;9.082;2022-12-08T10:01:06;9.48;;;5.10;;
76053;SDS011;64752;48.870;9.082;2022-12-08T10:03:33;8.27;;;5.47;;
76053;SDS011;64752;48.870;9.082;2022-12-08T10:19:46;9.35;;;5.47;;
76053;SDS011;64752;48.870;9.082;2022-12-08T10:22:22;11.53;;;6.23;;
76053;SDS011;64752;48.870;9.082;2022-12-08T10:27:39;9.77;;;5.65;;
76053;SDS011;64752;48.870;9.082;2022-12-08T10:30:11;13.98;;;6.32;;
76053;SDS011;64752;48.870;9.082;2022-12-08T10:32:38;10.93;;;6.30;;
76053;SDS011;64752;48.870;9.082;2022-12-08T10:35:12;8.48;;;5.32;;
76053;SDS011;64752;48.870;9.082;2022-12-08T10:37:40;12.18;;;6.20;;
76053;SDS011;64752;48.870;9.082;2022-12-08T10:42:56;14.52;;;5.53;;
76053;SDS011;64752;48.870;9.082;2022-12-08T10:48:00;10.00;;;5.85;;
76053;SDS011;64752;48.870;9.082;2022-12-08T10:50:29;11.05;;;6.57;;
76053;SDS011;64752;48.870;9.082;2022-12-08T10:52:58;12.65;;;6.13;;
76053;SDS011;64752;48.870;9.082;2022-12-08T10:55:48;13.68;;;6.05;;
76053;SDS011;64752;48.870;9.082;2022-12-08T11:06:19;9.00;;;5.70;;
76053;SDS011;64752;48.870;9.082;2022-12-08T11:08:51;8.38;;;5.45;;
76053;SDS011;64752;48.870;9.082;2022-12-08T11:11:36;12.82;;;5.97;;
76053;SDS011;64752;48.870;9.082;2022-12-08T11:14:20;8.63;;;5.57;;
76053;SDS011;64752;48.870;9.082;2022-12-08T11:16:51;9.35;;;6.15;;
76053;SDS011;64752;48.870;9.082;2022-12-08T11:19:20;9.02;;;6.10;;
76053;SDS011;64752;48.870;9.082;2022-12-08T11:21:49;10.40;;;5.75;;
76053;SDS011;64752;48.870;9.082;2022-12-08T11:24:20;12.55;;;6.85;;
76053;SDS011;64752;48.870;9.082;2022-12-08T11:26:58;12.23;;;6.32;;
76053;SDS011;64752;48.870;9.082;2022-12-08T11:29:31;11.68;;;6.05;;
76053;SDS011;64752;48.870;9.082;2022-12-08T11:32:02;8.23;;;5.75;;
76053;SDS011;64752;48.870;9.082;2022-12-08T11:37:04;9.57;;;5.80;;
76053;SDS011;64752;48.870;9.082;2022-12-08T11:39:31;9.98;;;6.47;;
76053;SDS011;64752;48.870;9.082;2022-12-08T11:42:01;11.25;;;6.88;;
76053;SDS011;64752;48.870;9.082;2022-12-08T11:47:33;8.63;;;5.75;;
76053;SDS011;64752;48.870;9.082;2022-12-08T11:52:53;9.10;;;5.50;;
76053;SDS011;64752;48.870;9.082;2022-12-08T11:58:13;10.15;;;5.55;;
76053;SDS011;64752;48.870;9.082;2022-12-08T12:00:49;10.90;;;5.97;;
76053;SDS011;64752;48.870;9.082;2022-12-08T12:03:34;11.65;;;5.80;;
76053;SDS011;64752;48.870;9.082;2022-12-08T12:17:07;9.20;;;5.95;;
76053;SDS011;64752;48.870;9.082;2022-12-08T12:19:50;9.20;;;5.78;;
76053;SDS011;64752;48.870;9.082;2022-12-08T12:22:18;11.60;;;6.60;;
76053;SDS011;64752;48.870;9.082;2022-12-08T12:24:46;14.23;;;6.68;;
76053;SDS011;64752;48.870;9.082;2022-12-08T12:29:52;10.30;;;6.72;;
76053;SDS011;64752;48.870;9.082;2022-12-08T12:32:23;10.57;;;6.30;;
76053;SDS011;64752;48.870;9.082;2022-12-08T12:34:54;8.57;;;6.03;;
76053;SDS011;64752;48.870;9.082;2022-12-08T12:37:41;10.23;;;6.30;;
76053;SDS011;64752;48.870;9.082;2022-12-08T12:55:28;10.30;;;6.38;;
76053;SDS011;64752;48.870;9.082;2022-12-08T12:58:22;12.38;;;5.80;;
76053;SDS011;64752;48.870;9.082;2022-12-08T13:03:32;13.07;;;7.07;;
76053;SDS011;64752;48.870;9.082;2022-12-08T13:05:58;9.05;;;6.07;;
76053;SDS011;64752;48.870;9.082;2022-12-08T13:08:23;10.90;;;6.35;;
76053;SDS011;64752;48.870;9.082;2022-12-08T13:11:07;10.38;;;6.50;;
76053;SDS011;64752;48.870;9.082;2022-12-08T13:13:37;10.45;;;6.45;;
76053;SDS011;64752;48.870;9.082;2022-12-08T13:16:20;11.60;;;6.22;;
76053;SDS011;64752;48.870;9.082;2022-12-08T13:18:49;12.98;;;6.40;;
76053;SDS011;64752;48.870;9.082;2022-12-08T13:21:17;9.38;;;5.85;;
76053;SDS011;64752;48.870;9.082;2022-12-08T13:26:47;11.55;;;6.28;;
76053;SDS011;64752;48.870;9.082;2022-12-08T13:31:45;10.45;;;6.65;;
76053;SDS011;64752;48.870;9.082;2022-12-08T13:34:13;10.77;;;6.45;;
76053;SDS011;64752;48.870;9.082;2022-12-08T13:42:05;9.23;;;6.47;;
76053;SDS011;64752;48.870;9.082;2022-12-08T13:44:55;11.63;;;6.60;;
76053;SDS011;64752;48.870;9.082;2022-12-08T13:47:47;13.27;;;7.07;;
76053;SDS011;64752;48.870;9.082;2022-12-08T13:50:20;10.88;;;6.38;;
76053;SDS011;64752;48.870;9.082;2022-12-08T13:55:31;10.80;;;6.53;;
76053;SDS011;64752;48.870;9.082;2022-12-08T13:57:58;10.95;;;6.65;;
76053;SDS011;64752;48.870;9.082;2022-12-08T14:00:23;9.32;;;6.05;;
76053;SDS011;64752;48.870;9.082;2022-12-08T14:02:51;10.23;;;6.40;;
76053;SDS011;64752;48.870;9.082;2022-12-08T14:05:21;9.90;;;5.88;;
76053;SDS011;64752;48.870;9.082;2022-12-08T14:07:48;12.50;;;6.95;;
76053;SDS011;64752;48.870;9.082;2022-12-08T14:10:18;8.82;;;5.78;;
76053;SDS011;64752;48.870;9.082;2022-12-08T14:12:56;10.25;;;6.53;;
76053;SDS011;64752;48.870;9.082;2022-12-08T14:15:25;10.52;;;6.18;;
76053;SDS011;64752;48.870;9.082;2022-12-08T14:17:51;9.32;;;6.68;;
76053;SDS011;64752;48.870;9.082;2022-12-08T14:20:22;12.32;;;6.90;;
76053;SDS011;64752;48.870;9.082;2022-12-08T14:22:50;10.85;;;6.57;;
76053;SDS011;64752;48.870;9.082;2022-12-08T14:25:17;12.68;;;6.75;;
76053;SDS011;64752;48.870;9.082;2022-12-08T14:27:47;11.52;;;7.18;;
76053;SDS011;64752;48.870;9.082;2022-12-08T14:32:45;14.05;;;8.95;;
76053;SDS011;64752;48.870;9.082;2022-12-08T14:35:32;12.73;;;8.13;;
76053;SDS011;64752;48.870;9.082;2022-12-08T14:38:02;13.80;;;7.07;;
76053;SDS011;64752;48.870;9.082;2022-12-08T14:40:31;20.50;;;7.22;;
76053;SDS011;64752;48.870;9.082;2022-12-08T14:48:21;22.45;;;6.72;;
76053;SDS011;64752;48.870;9.082;2022-12-08T14:53:26;14.80;;;6.70;;
76053;SDS011;64752;48.870;9.082;2022-12-08T14:56:00;15.60;;;6.60;;
76053;SDS011;64752;48.870;9.082;2022-12-08T14:58:29;10.02;;;6.93;;
76053;SDS011;64752;48.870;9.082;2022-12-08T15:00:55;15.25;;;7.00;;
76053;SDS011;64752;48.870;9.082;2022-12-08T15:03:23;13.48;;;6.53;;
76053;SDS011;64752;48.870;9.082;2022-12-08T15:05:51;12.93;;;7.20;;
76053;SDS011;64752;48.870;9.082;2022-12-08T15:08:20;17.38;;;7.28;;
76053;SDS011;64752;48.870;9.082;2022-12-08T15:10:46;12.82;;;6.65;;
76053;SDS011;64752;48.870;9.082;2022-12-08T15:13:43;9.93;;;6.90;;
76053;SDS011;64752;48.870;9.082;2022-12-08T15:16:26;12.65;;;7.32;;
76053;SDS011;64752;48.870;9.082;2022-12-08T15:21:56;15.75;;;9.07;;
76053;SDS011;64752;48.870;9.082;2022-12-08T15:24:25;14.20;;;7.90;;
76053;SDS011;64752;48.870;9.082;2022-12-08T15:26:53;11.23;;;7.22;;
76053;SDS011;64752;48.870;9.082;2022-12-08T15:29:23;13.75;;;7.65;;
76053;SDS011;64752;48.870;9.082;2022-12-08T15:31:51;17.70;;;7.85;;
76053;SDS011;64752;48.870;9.082;2022-12-08T15:34:18;10.32;;;7.03;;
76053;SDS011;64752;48.870;9.082;2022-12-08T15:36:45;27.23;;;15.00;;
76053;SDS011;64752;48.870;9.082;2022-12-08T15:39:18;16.77;;;9.52;;
76053;SDS011;64752;48.870;9.082;2022-12-08T15:41:48;14.63;;;9.13;;
76053;SDS011;64752;48.870;9.082;2022-12-08T15:44:13;18.33;;;8.93;;
76053;SDS011;64752;48.870;9.082;2022-12-08T15:46:39;13.23;;;7.30;;
76053;SDS011;64752;48.870;9.082;2022-12-08T15:49:04;13.48;;;8.10;;
76053;SDS011;64752;48.870;9.082;2022-12-08T15:51:29;14.95;;;7.70;;
76053;SDS011;64752;48.870;9.082;2022-12-08T15:54:00;15.85;;;8.77;;
76053;SDS011;64752;48.870;9.082;2022-12-08T15:56:25;15.40;;;9.38;;
76053;SDS011;64752;48.870;9.082;2022-12-08T15:58:52;13.10;;;8.45;;
76053;SDS011;64752;48.870;9.082;2022-12-08T16:01:20;18.08;;;6.72;;
76053;SDS011;64752;48.870;9.082;2022-12-08T16:03:46;13.00;;;8.20;;
76053;SDS011;64752;48.870;9.082;2022-12-08T16:06:18;16.63;;;7.93;;
76053;SDS011;64752;48.870;9.082;2022-12-08T16:08:48;14.63;;;8.18;;
76053;SDS011;64752;48.870;9.082;2022-12-08T16:11:13;23.65;;;12.77;;
76053;SDS011;64752;48.870;9.082;2022-12-08T16:13:58;30.80;;;16.80;;
76053;SDS011;64752;48.870;9.082;2022-12-08T16:16:25;36.10;;;21.20;;
76053;SDS011;64752;48.870;9.082;2022-12-08T16:18:52;32.47;;;21.13;;
76053;SDS011;64752;48.870;9.082;2022-12-08T16:21:18;32.38;;;19.58;;
76053;SDS011;64752;48.870;9.082;2022-12-08T16:23:44;30.05;;;16.10;;
76053;SDS011;64752;48.870;9.082;2022-12-08T16:26:10;29.43;;;15.10;;
76053;SDS011;64752;48.870;9.082;2022-12-08T16:28:38;20.25;;;11.38;;
76053;SDS011;64752;48.870;9.082;2022-12-08T16:31:05;21.60;;;12.95;;
76053;SDS011;64752;48.870;9.082;2022-12-08T16:33:31;28.38;;;16.88;;
76053;SDS011;64752;48.870;9.082;2022-12-08T16:35:56;18.50;;;10.47;;
76053;SDS011;64752;48.870;9.082;2022-12-08T16:38:21;17.53;;;10.47;;
76053;SDS011;64752;48.870;9.082;2022-12-08T16:40:47;17.35;;;10.05;;
76053;SDS011;64752;48.870;9.082;2022-12-08T16:43:32;17.35;;;9.32;;
76053;SDS011;64752;48.870;9.082;2022-12-08T16:45:58;17.75;;;10.02;;
76053;SDS011;64752;48.870;9.082;2022-12-08T16:48:24;17.07;;;10.27;;
76053;SDS011;64752;48.870;9.082;2022-12-08T16:50:49;15.63;;;10.35;;
76053;SDS011;64752;48.870;9.082;2022-12-08T16:53:14;21.60;;;10.37;;
76053;SDS011;64752;48.870;9.082;2022-12-08T16:55:40;18.88;;;10.65;;
76053;SDS011;64752;48.870;9.082;2022-12-08T16:58:10;17.23;;;10.48;;
76053;SDS011;64752;48.870;9.082;2022-12-08T17:00:35;19.63;;;10.63;;
76053;SDS011;64752;48.870;9.082;2022-12-08T17:03:02;18.38;;;10.00;;
76053;SDS011;64752;48.870;9.082;2022-12-08T17:05:28;18.42;;;11.07;;
76053;SDS011;64752;48.870;9.082;2022-12-08T17:07:54;17.30;;;10.53;;
76053;SDS011;64752;48.870;9.082;2022-12-08T17:10:21;15.68;;;10.27;;
76053;SDS011;64752;48.870;9.082;2022-12-08T17:12:49;21.85;;;11.95;;
76053;SDS011;64752;48.870;9.082;2022-12-08T17:15:15;16.50;;;11.30;;
76053;SDS011;64752;48.870;9.082;2022-12-08T17:17:42;23.73;;;12.68;;
76053;SDS011;64752;48.870;9.082;2022-12-08T17:20:11;21.42;;;12.10;;
76053;SDS011;64752;48.870;9.082;2022-12-08T17:22:39;21.73;;;11.55;;
76053;SDS011;64752;48.870;9.082;2022-12-08T17:25:04;22.95;;;12.52;;
76053;SDS011;64752;48.870;9.082;2022-12-08T17:27:30;18.45;;;11.40;;